createdAt,value
2023-04-20T00:02:04.137Z,14.00
2023-04-20T00:04:30.856Z,13.80
2023-04-20T00:06:59.076Z,14.10
2023-04-20T00:09:26.793Z,13.23
2023-04-20T00:11:54.294Z,14.23
2023-04-20T00:14:20.879Z,14.70
2023-04-20T00:16:48.453Z,14.00
2023-04-20T00:19:15.024Z,14.20
2023-04-20T00:21:41.648Z,16.57
2023-04-20T00:24:08.368Z,14.47
2023-04-20T00:26:34.965Z,14.40
2023-04-20T00:29:01.733Z,15.60
2023-04-20T00:31:28.292Z,14.90
2023-04-20T00:33:54.712Z,15.90
2023-04-20T00:36:21.925Z,14.77
2023-04-20T00:38:48.435Z,15.27
2023-04-20T00:41:14.981Z,15.70
2023-04-20T00:43:54.292Z,16.47
2023-04-20T00:46:21.487Z,15.33
2023-04-20T00:48:48.252Z,15.63
2023-04-20T00:51:15.045Z,16.07
2023-04-20T00:53:41.761Z,17.93
2023-04-20T00:56:08.996Z,16.93
2023-04-20T00:58:35.504Z,16.00
2023-04-20T01:01:01.932Z,15.50
2023-04-20T01:03:28.525Z,16.50
2023-04-20T01:05:55.762Z,18.03
2023-04-20T01:08:26.407Z,17.03
2023-04-20T01:10:54.333Z,15.70
2023-04-20T01:13:21.103Z,14.60
2023-04-20T01:15:47.936Z,14.17
2023-04-20T01:18:19.431Z,15.97
2023-04-20T01:20:50.490Z,16.60
2023-04-20T01:23:18.648Z,17.03
2023-04-20T01:25:45.267Z,16.93
2023-04-20T01:28:14.378Z,17.53
2023-04-20T01:30:41.316Z,17.27
2023-04-20T01:33:09.025Z,16.40
2023-04-20T01:35:40.963Z,16.50
2023-04-20T01:38:10.411Z,16.40
2023-04-20T01:40:42.658Z,14.63
2023-04-20T01:43:11.054Z,14.33
2023-04-20T01:45:37.990Z,15.07
2023-04-20T01:48:04.981Z,14.67
2023-04-20T01:50:32.127Z,14.37
2023-04-20T01:52:58.687Z,14.17
2023-04-20T01:55:25.155Z,14.03
2023-04-20T01:57:51.754Z,14.20
2023-04-20T02:00:18.594Z,15.13
2023-04-20T02:02:45.568Z,15.43
2023-04-20T02:05:12.132Z,15.23
2023-04-20T02:07:38.884Z,14.33
2023-04-20T02:10:06.433Z,14.93
2023-04-20T02:12:32.917Z,16.27
2023-04-20T02:14:59.531Z,17.03
2023-04-20T02:17:26.360Z,15.80
2023-04-20T02:19:52.855Z,15.33
2023-04-20T02:22:19.554Z,16.63
2023-04-20T02:24:46.224Z,16.17
2023-04-20T02:27:12.684Z,16.90
2023-04-20T02:29:39.207Z,17.43
2023-04-20T02:32:06.613Z,17.87
2023-04-20T02:34:33.435Z,16.80
2023-04-20T02:37:00.192Z,18.07
2023-04-20T02:39:26.914Z,18.20
2023-04-20T02:41:53.562Z,19.27
2023-04-20T02:44:20.012Z,19.30
2023-04-20T02:46:46.638Z,18.90
2023-04-20T02:49:13.299Z,19.30
2023-04-20T02:51:39.872Z,20.00
2023-04-20T02:54:06.427Z,21.37
2023-04-20T02:56:32.919Z,22.13
2023-04-20T02:58:59.370Z,23.23
2023-04-20T03:01:25.993Z,23.93
2023-04-20T03:03:52.752Z,24.97
2023-04-20T03:06:19.425Z,25.10
2023-04-20T03:08:46.128Z,23.73
2023-04-20T03:11:12.540Z,23.03
2023-04-20T03:13:38.908Z,22.03
2023-04-20T03:16:06.220Z,21.37
2023-04-20T03:18:32.760Z,19.97
2023-04-20T03:20:59.145Z,19.73
2023-04-20T03:23:25.820Z,20.50
2023-04-20T03:25:52.487Z,25.33
2023-04-20T03:28:18.907Z,25.13
2023-04-20T03:30:45.495Z,22.90
2023-04-20T03:33:12.018Z,24.23
2023-04-20T03:35:39.492Z,25.33
2023-04-20T03:38:06.552Z,25.20
2023-04-20T03:40:33.007Z,25.20
2023-04-20T03:42:59.578Z,24.73
2023-04-20T03:45:25.973Z,24.60
2023-04-20T03:47:52.464Z,24.67
2023-04-20T03:50:19.239Z,24.20
2023-04-20T03:52:46.280Z,24.40
2023-04-20T03:55:12.675Z,25.33
2023-04-20T03:57:39.126Z,26.17
2023-04-20T04:00:07.303Z,23.93
2023-04-20T04:02:36.795Z,25.07
2023-04-20T04:05:05.291Z,24.37
2023-04-20T04:07:32.125Z,23.53
2023-04-20T04:09:58.558Z,24.43
2023-04-20T04:12:25.082Z,26.77
2023-04-20T04:14:51.570Z,26.00
2023-04-20T04:17:18.147Z,26.37
2023-04-20T04:19:44.630Z,26.87
2023-04-20T04:22:11.128Z,28.20
2023-04-20T04:24:38.980Z,29.13
2023-04-20T04:27:05.595Z,30.27
2023-04-20T04:29:35.794Z,27.53
2023-04-20T04:32:04.068Z,28.77
2023-04-20T04:34:33.727Z,24.43
2023-04-20T04:37:00.565Z,25.73
2023-04-20T04:39:27.867Z,26.63
2023-04-20T04:41:54.301Z,24.93
2023-04-20T04:44:21.258Z,25.17
2023-04-20T04:46:48.368Z,24.23
2023-04-20T04:49:15.209Z,23.07
2023-04-20T04:51:41.832Z,23.40
2023-04-20T04:54:08.438Z,23.20
2023-04-20T04:56:34.894Z,24.20
2023-04-20T04:59:01.759Z,26.43
2023-04-20T05:01:28.378Z,27.67
2023-04-20T05:03:55.114Z,27.83
2023-04-20T05:06:21.656Z,28.07
2023-04-20T05:08:48.344Z,25.60
2023-04-20T05:11:15.001Z,26.90
2023-04-20T05:13:41.610Z,26.07
2023-04-20T05:16:08.682Z,26.63
2023-04-20T05:18:35.313Z,27.43
2023-04-20T05:21:01.872Z,25.27
2023-04-20T05:23:28.421Z,22.93
2023-04-20T05:25:54.901Z,22.90
2023-04-20T05:28:21.344Z,23.60
2023-04-20T05:30:47.780Z,24.60
2023-04-20T05:33:14.170Z,25.27
2023-04-20T05:35:41.170Z,24.60
2023-04-20T05:38:07.652Z,25.70
2023-04-20T05:40:35.407Z,24.47
2023-04-20T05:43:02.264Z,23.17
2023-04-20T05:45:28.813Z,24.37
2023-04-20T05:47:58.461Z,22.97
2023-04-20T05:50:25.952Z,23.73
2023-04-20T05:52:53.264Z,24.70
2023-04-20T05:55:22.222Z,27.67
2023-04-20T05:57:49.381Z,28.57
2023-04-20T06:00:16.918Z,27.57
2023-04-20T06:02:43.993Z,27.33
2023-04-20T06:05:11.282Z,26.93
2023-04-20T06:07:38.304Z,28.13
2023-04-20T06:10:05.747Z,27.47
2023-04-20T06:12:32.240Z,28.00
2023-04-20T06:14:59.519Z,27.73
2023-04-20T06:17:26.834Z,23.73
2023-04-20T06:19:53.372Z,23.13
2023-04-20T06:22:19.951Z,24.57
2023-04-20T06:24:46.728Z,23.13
2023-04-20T06:27:13.390Z,23.30
2023-04-20T06:29:39.821Z,21.97
2023-04-20T06:32:06.375Z,22.00
2023-04-20T06:34:32.968Z,21.47
2023-04-20T06:36:59.362Z,23.07
2023-04-20T06:39:26.210Z,23.70
2023-04-20T06:41:52.892Z,22.37
2023-04-20T06:44:19.287Z,23.13
2023-04-20T06:46:45.750Z,19.97
2023-04-20T06:49:12.182Z,18.97
2023-04-20T06:51:39.155Z,20.20
2023-04-20T06:54:05.722Z,19.97
2023-04-20T06:56:34.313Z,19.43
2023-04-20T06:59:01.949Z,20.43
2023-04-20T07:01:28.422Z,20.00
2023-04-20T07:03:55.231Z,19.40
2023-04-20T07:06:21.818Z,21.50
2023-04-20T07:08:48.277Z,21.07
2023-04-20T07:11:14.655Z,22.07
2023-04-20T07:13:41.225Z,22.13
2023-04-20T07:16:08.129Z,21.43
2023-04-20T07:18:35.361Z,21.10
2023-04-20T07:21:02.384Z,21.77
2023-04-20T07:23:28.898Z,21.13
2023-04-20T07:25:55.697Z,20.80
2023-04-20T07:28:22.149Z,21.33
2023-04-20T07:30:48.584Z,20.77
2023-04-20T07:33:15.142Z,20.87
2023-04-20T07:35:41.655Z,22.20
2023-04-20T07:38:08.097Z,22.83
2023-04-20T07:40:34.613Z,22.30
2023-04-20T07:43:01.130Z,21.83
2023-04-20T07:45:27.622Z,22.20
2023-04-20T07:47:55.275Z,21.77
2023-04-20T07:50:21.998Z,21.83
2023-04-20T07:52:48.530Z,20.90
2023-04-20T07:55:15.837Z,21.37
2023-04-20T07:57:42.547Z,21.47
2023-04-20T08:00:10.128Z,21.70
2023-04-20T08:02:36.935Z,22.00
2023-04-20T08:05:04.034Z,22.13
2023-04-20T08:07:30.874Z,20.90
2023-04-20T08:09:57.253Z,22.30
2023-04-20T08:12:23.768Z,20.87
2023-04-20T08:14:50.309Z,22.10
2023-04-20T08:17:16.690Z,21.70
2023-04-20T08:19:44.956Z,21.10
2023-04-20T08:22:12.714Z,20.93
2023-04-20T08:24:39.182Z,22.13
2023-04-20T08:27:06.647Z,22.20
2023-04-20T08:29:33.036Z,21.00
2023-04-20T08:31:59.646Z,23.40
2023-04-20T08:34:26.188Z,22.07
2023-04-20T08:36:52.750Z,20.90
2023-04-20T08:39:21.795Z,23.13
2023-04-20T08:41:53.572Z,22.00
2023-04-20T08:44:20.550Z,22.20
2023-04-20T08:46:48.389Z,22.13
2023-04-20T08:49:19.185Z,21.83
2023-04-20T08:51:47.361Z,21.77
2023-04-20T08:54:14.769Z,22.93
2023-04-20T08:56:46.159Z,22.80
2023-04-20T08:59:14.415Z,24.90
2023-04-20T09:01:41.993Z,23.57
2023-04-20T09:04:22.974Z,24.73
2023-04-20T09:06:51.672Z,25.47
2023-04-20T09:09:19.727Z,21.77
2023-04-20T09:11:47.647Z,23.07
2023-04-20T09:14:18.890Z,20.83
2023-04-20T09:16:53.494Z,23.00
2023-04-20T09:19:24.677Z,22.73
2023-04-20T09:21:53.166Z,24.00
2023-04-20T09:24:21.573Z,23.63
2023-04-20T09:26:48.184Z,23.87
2023-04-20T09:29:23.378Z,24.67
2023-04-20T09:31:50.762Z,26.53
2023-04-20T09:34:18.281Z,24.33
2023-04-20T09:36:54.721Z,27.77
2023-04-20T09:39:22.983Z,27.27
2023-04-20T09:41:51.027Z,27.73
2023-04-20T09:44:18.898Z,27.97
2023-04-20T09:46:46.682Z,26.10
2023-04-20T09:49:14.677Z,25.20
2023-04-20T09:51:45.186Z,24.70
2023-04-20T09:54:12.651Z,24.83
2023-04-20T09:56:39.988Z,25.37
2023-04-20T09:59:07.890Z,25.13
2023-04-20T10:01:36.466Z,29.80
2023-04-20T10:04:07.727Z,26.37
2023-04-20T10:06:35.843Z,26.53
2023-04-20T10:09:05.176Z,27.97
2023-04-20T10:11:49.047Z,27.33
2023-04-20T10:14:20.887Z,27.17
2023-04-20T10:16:59.508Z,25.93
2023-04-20T10:19:36.722Z,27.50
2023-04-20T10:22:03.201Z,27.23
2023-04-20T10:24:30.456Z,26.00
2023-04-20T10:26:57.116Z,27.17
2023-04-20T10:29:25.425Z,25.00
2023-04-20T10:31:53.359Z,28.17
2023-04-20T10:34:36.120Z,27.07
2023-04-20T10:37:10.184Z,29.07
2023-04-20T10:39:40.152Z,28.57
2023-04-20T10:42:06.599Z,27.33
2023-04-20T10:44:34.526Z,28.23
2023-04-20T10:47:01.088Z,28.30
2023-04-20T10:49:32.249Z,28.93
2023-04-20T10:51:58.850Z,27.90
2023-04-20T10:54:26.105Z,28.37
2023-04-20T10:56:53.304Z,28.33
2023-04-20T10:59:22.044Z,28.47
2023-04-20T11:01:49.824Z,28.87
2023-04-20T11:04:18.936Z,28.63
2023-04-20T11:06:48.241Z,26.67
2023-04-20T11:09:22.921Z,27.93
2023-04-20T11:12:03.857Z,25.83
2023-04-20T11:14:42.903Z,24.40
2023-04-20T11:17:09.467Z,27.10
2023-04-20T11:19:36.962Z,27.77
2023-04-20T11:22:04.547Z,26.77
2023-04-20T11:24:33.695Z,26.73
2023-04-20T11:27:01.958Z,26.47
2023-04-20T11:29:39.127Z,26.47
2023-04-20T11:32:10.681Z,26.90
2023-04-20T11:34:38.499Z,27.10
2023-04-20T11:37:13.755Z,27.33
2023-04-20T11:39:40.236Z,26.47
2023-04-20T11:42:07.185Z,27.20
2023-04-20T11:44:36.426Z,27.83
2023-04-20T11:47:03.787Z,28.07
2023-04-20T11:49:30.891Z,28.00
2023-04-20T11:51:57.576Z,28.30
2023-04-20T11:54:25.148Z,29.53
2023-04-20T11:56:51.633Z,30.43
2023-04-20T11:59:20.097Z,29.37
2023-04-20T12:01:47.803Z,28.87
2023-04-20T12:04:15.354Z,29.87
2023-04-20T12:06:42.429Z,29.33
2023-04-20T12:09:08.905Z,30.17
2023-04-20T12:11:35.314Z,29.83
2023-04-20T12:14:01.752Z,30.10
2023-04-20T12:16:29.302Z,29.80
2023-04-20T12:18:56.454Z,29.80
2023-04-20T12:21:22.897Z,28.67
2023-04-20T12:23:51.127Z,28.20
2023-04-20T12:26:17.886Z,28.63
2023-04-20T12:28:45.417Z,26.83
2023-04-20T12:31:12.182Z,28.07
2023-04-20T12:33:38.893Z,26.50
2023-04-20T12:36:05.625Z,27.30
2023-04-20T12:38:32.007Z,26.23
2023-04-20T12:40:58.536Z,25.53
2023-04-20T12:43:25.027Z,24.97
2023-04-20T12:45:51.503Z,24.53
2023-04-20T12:48:18.054Z,25.00
2023-04-20T12:50:44.613Z,24.90
2023-04-20T12:53:11.063Z,23.40
2023-04-20T12:55:37.515Z,23.37
2023-04-20T12:58:04.088Z,25.23
2023-04-20T13:00:30.725Z,24.30
2023-04-20T13:02:57.371Z,24.53
2023-04-20T13:05:23.875Z,24.70
2023-04-20T13:07:50.693Z,24.10
2023-04-20T13:10:17.249Z,24.23
2023-04-20T13:12:43.765Z,24.57
2023-04-20T13:15:10.837Z,24.73
2023-04-20T13:17:37.329Z,24.50
2023-04-20T13:20:04.919Z,24.20
2023-04-20T13:22:31.840Z,23.87
2023-04-20T13:24:58.390Z,22.33
2023-04-20T13:27:24.814Z,22.40
2023-04-20T13:29:51.293Z,22.77
2023-04-20T13:32:17.756Z,21.77
2023-04-20T13:34:46.074Z,22.73
2023-04-20T13:37:13.136Z,24.20
2023-04-20T13:39:39.548Z,24.37
2023-04-20T13:42:06.065Z,24.63
2023-04-20T13:44:34.441Z,23.50
2023-04-20T13:47:01.041Z,21.93
2023-04-20T13:49:27.476Z,22.57
2023-04-20T13:51:53.962Z,22.80
2023-04-20T13:54:20.917Z,22.83
2023-04-20T13:56:47.433Z,21.90
2023-04-20T13:59:15.525Z,22.17
2023-04-20T14:01:41.967Z,23.97
2023-04-20T14:04:09.885Z,24.07
2023-04-20T14:06:36.512Z,22.43
2023-04-20T14:09:03.004Z,22.90
2023-04-20T14:11:29.493Z,23.53
2023-04-20T14:13:56.037Z,22.87
2023-04-20T14:16:22.816Z,23.08
2023-04-20T14:18:49.438Z,24.20
2023-04-20T14:21:15.982Z,22.98
2023-04-20T14:23:42.477Z,22.42
2023-04-20T14:26:08.915Z,21.30
2023-04-20T14:28:35.394Z,21.02
2023-04-20T14:31:02.559Z,21.17
2023-04-20T14:33:29.082Z,21.73
2023-04-20T14:35:55.488Z,21.05
2023-04-20T14:38:21.869Z,19.98
2023-04-20T14:40:48.788Z,19.67
2023-04-20T14:43:15.427Z,19.23
2023-04-20T14:45:41.943Z,20.75
2023-04-20T14:48:08.538Z,19.15
2023-04-20T14:50:35.116Z,19.60
2023-04-20T14:53:01.918Z,18.83
2023-04-20T14:55:28.778Z,19.77
2023-04-20T14:57:57.188Z,20.17
2023-04-20T15:00:25.212Z,19.92
2023-04-20T15:02:53.553Z,21.02
2023-04-20T15:05:20.597Z,20.27
2023-04-20T15:07:50.598Z,20.95
2023-04-20T15:10:20.469Z,20.42
2023-04-20T15:12:47.861Z,20.42
2023-04-20T15:15:14.964Z,21.90
2023-04-20T15:17:42.059Z,21.40
2023-04-20T15:20:09.300Z,21.02
2023-04-20T15:22:36.889Z,20.85
2023-04-20T15:25:03.936Z,20.80
2023-04-20T15:27:30.532Z,19.88
2023-04-20T15:29:58.405Z,19.48
2023-04-20T15:32:25.767Z,19.75
2023-04-20T15:34:53.829Z,22.33
2023-04-20T15:37:20.498Z,21.70
2023-04-20T15:39:47.149Z,18.83
2023-04-20T15:42:14.193Z,19.13
2023-04-20T15:44:41.456Z,19.10
2023-04-20T15:47:08.032Z,18.55
2023-04-20T15:49:37.325Z,18.63
2023-04-20T15:52:05.112Z,17.73
2023-04-20T15:54:31.547Z,18.70
2023-04-20T15:56:58.056Z,16.85
2023-04-20T15:59:24.665Z,15.98
2023-04-20T16:01:51.253Z,14.88
2023-04-20T16:04:18.086Z,14.80
2023-04-20T16:06:45.171Z,14.48
2023-04-20T16:09:11.549Z,13.27
2023-04-20T16:11:39.622Z,12.85
2023-04-20T16:14:06.456Z,13.38
2023-04-20T16:16:33.334Z,12.02
2023-04-20T16:18:59.780Z,12.57
2023-04-20T16:21:26.393Z,13.10
2023-04-20T16:23:59.844Z,13.55
2023-04-20T16:26:26.290Z,13.05
2023-04-20T16:28:53.692Z,12.95
2023-04-20T16:31:20.297Z,13.68
2023-04-20T16:33:46.913Z,12.43
2023-04-20T16:36:13.639Z,12.73
2023-04-20T16:38:40.081Z,12.85
2023-04-20T16:41:06.633Z,13.43
2023-04-20T16:43:33.107Z,13.40
2023-04-20T16:45:59.641Z,11.95
2023-04-20T16:48:26.231Z,12.40
2023-04-20T16:50:53.199Z,12.80
2023-04-20T16:53:20.040Z,12.55
2023-04-20T16:55:46.534Z,13.25
2023-04-20T16:58:12.952Z,12.07
2023-04-20T17:00:39.463Z,12.68
2023-04-20T17:03:10.856Z,12.85
2023-04-20T17:05:41.104Z,12.60
2023-04-20T17:08:08.667Z,12.52
2023-04-20T17:10:37.251Z,11.80
2023-04-20T17:13:04.227Z,12.98
2023-04-20T17:15:31.262Z,12.82
2023-04-20T17:17:58.189Z,12.38
2023-04-20T17:20:25.022Z,12.15
2023-04-20T17:22:51.653Z,13.70
2023-04-20T17:25:18.374Z,13.85
2023-04-20T17:27:45.004Z,14.73
2023-04-20T17:30:11.890Z,13.73
2023-04-20T17:32:38.512Z,14.73
2023-04-20T17:35:05.535Z,13.52
2023-04-20T17:37:32.061Z,14.23
2023-04-20T17:39:58.672Z,14.80
2023-04-20T17:42:25.303Z,14.23
2023-04-20T17:44:51.716Z,14.13
2023-04-20T17:47:18.208Z,14.82
2023-04-20T17:49:44.745Z,15.20
2023-04-20T17:52:14.913Z,15.27
2023-04-20T17:54:41.535Z,15.10
2023-04-20T17:57:09.012Z,15.90
2023-04-20T17:59:35.883Z,16.05
2023-04-20T18:02:02.912Z,15.70
2023-04-20T18:04:29.730Z,17.93
2023-04-20T18:06:56.562Z,17.50
2023-04-20T18:09:23.002Z,16.90
2023-04-20T18:11:49.392Z,18.50
2023-04-20T18:14:16.113Z,19.73
2023-04-20T18:16:42.659Z,17.70
2023-04-20T18:19:09.226Z,17.40
2023-04-20T18:21:35.723Z,18.70
2023-04-20T18:24:04.192Z,18.13
2023-04-20T18:26:30.675Z,17.07
2023-04-20T18:28:57.115Z,17.20
2023-04-20T18:31:23.669Z,17.43
2023-04-20T18:33:50.286Z,17.50
2023-04-20T18:36:16.886Z,17.97
2023-04-20T18:38:43.683Z,18.20
2023-04-20T18:41:10.881Z,18.23
2023-04-20T18:43:37.734Z,16.93
2023-04-20T18:46:04.639Z,17.80
2023-04-20T18:48:31.323Z,17.67
2023-04-20T18:50:57.748Z,17.07
2023-04-20T18:53:24.203Z,17.93
2023-04-20T18:55:52.867Z,17.47
2023-04-20T18:58:19.329Z,17.77
2023-04-20T19:00:45.881Z,16.87
2023-04-20T19:03:12.588Z,16.70
2023-04-20T19:05:39.213Z,17.33
2023-04-20T19:08:05.707Z,16.80
2023-04-20T19:10:32.191Z,17.30
2023-04-20T19:12:58.648Z,17.77
2023-04-20T19:15:28.032Z,17.40
2023-04-20T19:17:56.058Z,17.53
2023-04-20T19:20:26.176Z,17.50
2023-04-20T19:22:52.872Z,17.23
2023-04-20T19:25:20.367Z,18.13
2023-04-20T19:27:47.214Z,18.30
2023-04-20T19:30:14.045Z,18.60
2023-04-20T19:32:40.632Z,18.10
2023-04-20T19:35:07.529Z,18.27
2023-04-20T19:37:34.154Z,19.20
2023-04-20T19:40:00.770Z,19.63
2023-04-20T19:42:27.357Z,19.03
2023-04-20T19:44:53.919Z,19.07
2023-04-20T19:47:20.801Z,18.80
2023-04-20T19:49:47.401Z,17.97
2023-04-20T19:52:13.891Z,17.97
2023-04-20T19:54:40.394Z,18.70
2023-04-20T19:57:07.070Z,18.53
2023-04-20T19:59:33.780Z,18.17
2023-04-20T20:02:00.298Z,19.23
2023-04-20T20:04:27.123Z,18.10
2023-04-20T20:06:53.956Z,20.43
2023-04-20T20:09:23.737Z,19.80
2023-04-20T20:11:50.763Z,20.33
2023-04-20T20:14:17.564Z,20.63
2023-04-20T20:16:44.215Z,21.13
2023-04-20T20:19:11.071Z,20.07
2023-04-20T20:21:37.796Z,20.13
2023-04-20T20:24:05.089Z,21.00
2023-04-20T20:26:31.612Z,20.90
2023-04-20T20:28:58.065Z,21.10
2023-04-20T20:31:24.690Z,21.37
2023-04-20T20:33:52.073Z,21.27
2023-04-20T20:36:18.942Z,19.57
2023-04-20T20:38:45.473Z,22.03
2023-04-20T20:41:13.855Z,22.50
2023-04-20T20:43:43.170Z,23.77
2023-04-20T20:46:09.829Z,24.03
2023-04-20T20:48:37.189Z,21.87
2023-04-20T20:51:03.733Z,22.53
2023-04-20T20:53:30.182Z,21.33
2023-04-20T20:55:56.649Z,21.40
2023-04-20T20:58:23.110Z,22.60
2023-04-20T21:00:49.746Z,22.50
2023-04-20T21:03:16.426Z,23.63
2023-04-20T21:05:43.062Z,22.33
2023-04-20T21:08:10.069Z,24.33
2023-04-20T21:10:37.094Z,25.23
2023-04-20T21:13:04.203Z,25.03
2023-04-20T21:15:30.678Z,24.53
2023-04-20T21:17:57.310Z,25.17
2023-04-20T21:20:23.746Z,24.30
2023-04-20T21:22:50.230Z,27.17
2023-04-20T21:25:16.991Z,27.93
2023-04-20T21:27:43.629Z,26.00
2023-04-20T21:30:11.095Z,25.93
2023-04-20T21:32:37.647Z,27.60
2023-04-20T21:35:04.478Z,26.83
2023-04-20T21:37:31.141Z,29.20
2023-04-20T21:39:57.651Z,28.33
2023-04-20T21:42:24.124Z,28.93
2023-04-20T21:44:50.724Z,29.70
2023-04-20T21:47:17.267Z,30.80
2023-04-20T21:49:43.863Z,30.33
2023-04-20T21:52:10.524Z,31.17
2023-04-20T21:54:37.646Z,30.00
2023-04-20T21:57:04.121Z,29.13
2023-04-20T21:59:30.558Z,30.37
2023-04-20T22:01:57.334Z,29.70
2023-04-20T22:04:25.891Z,31.37
2023-04-20T22:06:53.525Z,31.33
2023-04-20T22:09:20.144Z,30.70
2023-04-20T22:11:47.781Z,30.73
2023-04-20T22:14:14.306Z,31.10
2023-04-20T22:16:41.110Z,30.73
2023-04-20T22:19:07.696Z,31.10
2023-04-20T22:21:34.398Z,32.77
2023-04-20T22:24:00.937Z,31.97
2023-04-20T22:26:27.588Z,31.03
2023-04-20T22:29:06.414Z,34.30
2023-04-20T22:31:33.076Z,34.03
2023-04-20T22:33:59.621Z,31.80
2023-04-20T22:36:26.615Z,31.87
2023-04-20T22:38:53.595Z,31.13
2023-04-20T22:41:20.307Z,32.07
2023-04-20T22:43:46.721Z,33.27
2023-04-20T22:46:13.297Z,33.50
2023-04-20T22:48:41.513Z,34.47
2023-04-20T22:51:07.945Z,33.57
2023-04-20T22:53:34.553Z,33.67
2023-04-20T22:56:05.850Z,32.33
2023-04-20T22:58:32.503Z,32.37
2023-04-20T23:00:59.371Z,31.73
2023-04-20T23:03:26.522Z,32.73
2023-04-20T23:05:57.502Z,33.27
2023-04-20T23:08:25.571Z,32.13
2023-04-20T23:10:53.785Z,33.07
2023-04-20T23:13:22.014Z,31.60
2023-04-20T23:15:49.701Z,30.83
2023-04-20T23:18:16.562Z,31.70
2023-04-20T23:20:43.290Z,32.90
2023-04-20T23:23:10.953Z,30.97
2023-04-20T23:25:37.813Z,31.03
2023-04-20T23:28:04.986Z,29.97
2023-04-20T23:30:31.736Z,29.67
2023-04-20T23:32:58.362Z,30.13
2023-04-20T23:35:24.970Z,29.73
2023-04-20T23:37:51.589Z,31.83
2023-04-20T23:40:18.158Z,31.17
2023-04-20T23:42:44.647Z,31.23
2023-04-20T23:45:11.899Z,31.27
2023-04-20T23:47:38.653Z,33.90
2023-04-20T23:50:05.801Z,32.70
2023-04-20T23:52:32.550Z,31.33
2023-04-20T23:54:59.134Z,30.80
2023-04-20T23:57:25.604Z,30.03
2023-04-20T23:59:52.071Z,31.33
